sensor_id;sensor_type;location;lat;lon;timestamp;P1;durP1;ratioP1;P2;durP2;ratioP2
6077;SDS011;3067;49.470;10.394;2024-03-25T00:01:52;6.40;;;4.37;;
6077;SDS011;3067;49.470;10.394;2024-03-25T00:04:18;7.50;;;4.50;;
6077;SDS011;3067;49.470;10.394;2024-03-25T00:06:47;3.73;;;3.43;;
6077;SDS011;3067;49.470;10.394;2024-03-25T00:09:13;4.40;;;3.83;;
6077;SDS011;3067;49.470;10.394;2024-03-25T00:11:42;3.60;;;3.40;;
6077;SDS011;3067;49.470;10.394;2024-03-25T00:14:08;4.47;;;4.00;;
6077;SDS011;3067;49.470;10.394;2024-03-25T00:16:35;4.83;;;4.33;;
6077;SDS011;3067;49.470;10.394;2024-03-25T00:19:02;5.03;;;4.60;;
6077;SDS011;3067;49.470;10.394;2024-03-25T00:21:29;4.80;;;4.10;;
6077;SDS011;3067;49.470;10.394;2024-03-25T00:23:55;8.67;;;4.37;;
6077;SDS011;3067;49.470;10.394;2024-03-25T00:26:22;4.30;;;3.70;;
6077;SDS011;3067;49.470;10.394;2024-03-25T00:28:49;5.20;;;4.40;;
6077;SDS011;3067;49.470;10.394;2024-03-25T00:31:17;4.43;;;4.13;;
6077;SDS011;3067;49.470;10.394;2024-03-25T00:33:43;3.57;;;3.30;;
6077;SDS011;3067;49.470;10.394;2024-03-25T00:36:10;4.60;;;4.13;;
6077;SDS011;3067;49.470;10.394;2024-03-25T00:38:36;4.23;;;3.93;;
6077;SDS011;3067;49.470;10.394;2024-03-25T00:41:03;4.50;;;4.20;;
6077;SDS011;3067;49.470;10.394;2024-03-25T00:43:29;8.67;;;4.20;;
6077;SDS011;3067;49.470;10.394;2024-03-25T00:45:58;3.40;;;3.20;;
6077;SDS011;3067;49.470;10.394;2024-03-25T00:48:24;4.60;;;4.20;;
6077;SDS011;3067;49.470;10.394;2024-03-25T00:50:51;5.57;;;3.67;;
6077;SDS011;3067;49.470;10.394;2024-03-25T00:53:17;5.40;;;4.43;;
6077;SDS011;3067;49.470;10.394;2024-03-25T00:55:44;3.60;;;3.40;;
6077;SDS011;3067;49.470;10.394;2024-03-25T00:58:10;4.53;;;4.17;;
6077;SDS011;3067;49.470;10.394;2024-03-25T01:00:37;7.03;;;4.90;;
6077;SDS011;3067;49.470;10.394;2024-03-25T01:03:05;6.23;;;4.77;;
6077;SDS011;3067;49.470;10.394;2024-03-25T01:05:33;4.00;;;3.70;;
6077;SDS011;3067;49.470;10.394;2024-03-25T01:07:59;4.70;;;4.27;;
6077;SDS011;3067;49.470;10.394;2024-03-25T01:10:26;7.20;;;4.90;;
6077;SDS011;3067;49.470;10.394;2024-03-25T01:12:52;4.20;;;3.90;;
6077;SDS011;3067;49.470;10.394;2024-03-25T01:15:19;4.90;;;4.10;;
6077;SDS011;3067;49.470;10.394;2024-03-25T01:17:45;5.57;;;4.60;;
6077;SDS011;3067;49.470;10.394;2024-03-25T01:20:14;4.27;;;3.87;;
6077;SDS011;3067;49.470;10.394;2024-03-25T01:22:41;4.17;;;3.67;;
6077;SDS011;3067;49.470;10.394;2024-03-25T01:25:07;3.67;;;3.23;;
6077;SDS011;3067;49.470;10.394;2024-03-25T01:27:35;7.70;;;4.53;;
6077;SDS011;3067;49.470;10.394;2024-03-25T01:30:01;10.10;;;3.57;;
6077;SDS011;3067;49.470;10.394;2024-03-25T01:32:29;3.60;;;3.40;;
6077;SDS011;3067;49.470;10.394;2024-03-25T01:34:55;5.40;;;3.63;;
6077;SDS011;3067;49.470;10.394;2024-03-25T01:37:24;6.73;;;4.37;;
6077;SDS011;3067;49.470;10.394;2024-03-25T01:39:50;5.80;;;4.70;;
6077;SDS011;3067;49.470;10.394;2024-03-25T01:42:17;4.13;;;3.40;;
6077;SDS011;3067;49.470;10.394;2024-03-25T01:44:43;6.23;;;4.47;;
6077;SDS011;3067;49.470;10.394;2024-03-25T01:47:12;6.73;;;4.20;;
6077;SDS011;3067;49.470;10.394;2024-03-25T01:49:38;4.80;;;4.17;;
6077;SDS011;3067;49.470;10.394;2024-03-25T01:52:06;3.57;;;3.23;;
6077;SDS011;3067;49.470;10.394;2024-03-25T01:54:33;6.77;;;4.77;;
6077;SDS011;3067;49.470;10.394;2024-03-25T01:57:00;5.07;;;4.03;;
6077;SDS011;3067;49.470;10.394;2024-03-25T01:59:27;5.80;;;4.23;;
6077;SDS011;3067;49.470;10.394;2024-03-25T02:01:55;8.60;;;4.17;;
6077;SDS011;3067;49.470;10.394;2024-03-25T02:04:22;4.00;;;3.70;;
6077;SDS011;3067;49.470;10.394;2024-03-25T02:06:49;8.83;;;5.00;;
6077;SDS011;3067;49.470;10.394;2024-03-25T02:09:17;5.60;;;4.47;;
6077;SDS011;3067;49.470;10.394;2024-03-25T02:11:46;6.70;;;3.87;;
6077;SDS011;3067;49.470;10.394;2024-03-25T02:14:12;7.00;;;4.80;;
6077;SDS011;3067;49.470;10.394;2024-03-25T02:16:39;4.40;;;4.00;;
6077;SDS011;3067;49.470;10.394;2024-03-25T02:19:05;4.30;;;3.90;;
6077;SDS011;3067;49.470;10.394;2024-03-25T02:21:33;4.63;;;4.33;;
6077;SDS011;3067;49.470;10.394;2024-03-25T02:23:59;6.83;;;4.90;;
6077;SDS011;3067;49.470;10.394;2024-03-25T02:26:30;6.73;;;4.23;;
6077;SDS011;3067;49.470;10.394;2024-03-25T02:28:56;6.20;;;4.63;;
6077;SDS011;3067;49.470;10.394;2024-03-25T02:31:23;5.37;;;4.47;;
6077;SDS011;3067;49.470;10.394;2024-03-25T02:33:49;9.33;;;6.13;;
6077;SDS011;3067;49.470;10.394;2024-03-25T02:36:16;5.63;;;5.13;;
6077;SDS011;3067;49.470;10.394;2024-03-25T02:38:42;5.10;;;4.60;;
6077;SDS011;3067;49.470;10.394;2024-03-25T02:41:10;7.83;;;6.40;;
6077;SDS011;3067;49.470;10.394;2024-03-25T02:43:37;9.73;;;4.80;;
6077;SDS011;3067;49.470;10.394;2024-03-25T02:46:05;7.40;;;5.80;;
6077;SDS011;3067;49.470;10.394;2024-03-25T02:48:31;6.70;;;5.57;;
6077;SDS011;3067;49.470;10.394;2024-03-25T02:50:58;8.80;;;5.87;;
6077;SDS011;3067;49.470;10.394;2024-03-25T02:53:24;6.73;;;4.97;;
6077;SDS011;3067;49.470;10.394;2024-03-25T02:55:51;8.20;;;5.30;;
6077;SDS011;3067;49.470;10.394;2024-03-25T02:58:17;12.23;;;6.07;;
6077;SDS011;3067;49.470;10.394;2024-03-25T03:00:45;7.57;;;5.53;;
6077;SDS011;3067;49.470;10.394;2024-03-25T03:03:12;7.20;;;5.90;;
6077;SDS011;3067;49.470;10.394;2024-03-25T03:05:39;16.80;;;5.70;;
6077;SDS011;3067;49.470;10.394;2024-03-25T03:08:05;9.67;;;5.63;;
6077;SDS011;3067;49.470;10.394;2024-03-25T03:10:32;5.60;;;4.00;;
6077;SDS011;3067;49.470;10.394;2024-03-25T03:12:58;10.33;;;5.97;;
6077;SDS011;3067;49.470;10.394;2024-03-25T03:15:25;7.43;;;5.97;;
6077;SDS011;3067;49.470;10.394;2024-03-25T03:17:53;6.47;;;4.77;;
6077;SDS011;3067;49.470;10.394;2024-03-25T03:20:20;11.63;;;5.90;;
6077;SDS011;3067;49.470;10.394;2024-03-25T03:22:46;5.70;;;4.63;;
6077;SDS011;3067;49.470;10.394;2024-03-25T03:25:13;10.13;;;6.30;;
6077;SDS011;3067;49.470;10.394;2024-03-25T03:27:39;8.37;;;6.30;;
6077;SDS011;3067;49.470;10.394;2024-03-25T03:30:07;11.57;;;4.60;;
6077;SDS011;3067;49.470;10.394;2024-03-25T03:32:34;10.63;;;6.07;;
6077;SDS011;3067;49.470;10.394;2024-03-25T03:35:03;9.43;;;6.47;;
6077;SDS011;3067;49.470;10.394;2024-03-25T03:37:29;7.10;;;6.40;;
6077;SDS011;3067;49.470;10.394;2024-03-25T03:39:56;8.23;;;5.57;;
6077;SDS011;3067;49.470;10.394;2024-03-25T03:42:22;13.53;;;6.17;;
6077;SDS011;3067;49.470;10.394;2024-03-25T03:44:49;8.63;;;6.27;;
6077;SDS011;3067;49.470;10.394;2024-03-25T03:47:15;7.80;;;6.20;;
6077;SDS011;3067;49.470;10.394;2024-03-25T03:49:42;7.83;;;6.20;;
6077;SDS011;3067;49.470;10.394;2024-03-25T03:52:10;11.40;;;6.63;;
6077;SDS011;3067;49.470;10.394;2024-03-25T03:54:37;7.73;;;6.47;;
6077;SDS011;3067;49.470;10.394;2024-03-25T03:57:04;6.90;;;6.07;;
6077;SDS011;3067;49.470;10.394;2024-03-25T03:59:31;10.83;;;6.30;;
6077;SDS011;3067;49.470;10.394;2024-03-25T04:01:57;9.77;;;6.67;;
6077;SDS011;3067;49.470;10.394;2024-03-25T04:04:24;8.67;;;5.27;;
6077;SDS011;3067;49.470;10.394;2024-03-25T04:06:51;7.93;;;5.63;;
6077;SDS011;3067;49.470;10.394;2024-03-25T04:09:20;8.20;;;6.37;;
6077;SDS011;3067;49.470;10.394;2024-03-25T04:11:50;11.60;;;6.60;;
6077;SDS011;3067;49.470;10.394;2024-03-25T04:14:17;7.83;;;5.83;;
6077;SDS011;3067;49.470;10.394;2024-03-25T04:16:43;8.47;;;7.07;;
6077;SDS011;3067;49.470;10.394;2024-03-25T04:19:10;14.80;;;6.43;;
6077;SDS011;3067;49.470;10.394;2024-03-25T04:21:36;8.60;;;5.97;;
6077;SDS011;3067;49.470;10.394;2024-03-25T04:24:04;10.23;;;6.20;;
6077;SDS011;3067;49.470;10.394;2024-03-25T04:26:32;6.73;;;5.80;;
6077;SDS011;3067;49.470;10.394;2024-03-25T04:28:59;8.83;;;5.70;;
6077;SDS011;3067;49.470;10.394;2024-03-25T04:31:25;9.23;;;6.40;;
6077;SDS011;3067;49.470;10.394;2024-03-25T04:33:52;11.33;;;6.67;;
6077;SDS011;3067;49.470;10.394;2024-03-25T04:36:18;11.10;;;5.93;;
6077;SDS011;3067;49.470;10.394;2024-03-25T04:38:45;6.80;;;6.10;;
6077;SDS011;3067;49.470;10.394;2024-03-25T04:41:12;6.13;;;5.40;;
6077;SDS011;3067;49.470;10.394;2024-03-25T04:43:39;9.07;;;6.43;;
6077;SDS011;3067;49.470;10.394;2024-03-25T04:46:05;13.73;;;6.47;;
6077;SDS011;3067;49.470;10.394;2024-03-25T04:48:31;12.60;;;6.20;;
6077;SDS011;3067;49.470;10.394;2024-03-25T04:50:57;14.33;;;6.03;;
6077;SDS011;3067;49.470;10.394;2024-03-25T04:53:24;8.43;;;5.90;;
6077;SDS011;3067;49.470;10.394;2024-03-25T04:55:50;10.23;;;5.77;;
6077;SDS011;3067;49.470;10.394;2024-03-25T04:58:16;17.23;;;6.13;;
6077;SDS011;3067;49.470;10.394;2024-03-25T05:00:43;8.00;;;5.60;;
6077;SDS011;3067;49.470;10.394;2024-03-25T05:03:09;9.10;;;5.10;;
6077;SDS011;3067;49.470;10.394;2024-03-25T05:05:35;10.03;;;5.43;;
6077;SDS011;3067;49.470;10.394;2024-03-25T05:08:01;11.20;;;5.60;;
6077;SDS011;3067;49.470;10.394;2024-03-25T05:10:28;5.20;;;4.70;;
6077;SDS011;3067;49.470;10.394;2024-03-25T05:12:54;8.23;;;5.37;;
6077;SDS011;3067;49.470;10.394;2024-03-25T05:15:20;12.03;;;5.70;;
6077;SDS011;3067;49.470;10.394;2024-03-25T05:17:47;7.70;;;5.13;;
6077;SDS011;3067;49.470;10.394;2024-03-25T05:20:13;9.53;;;5.43;;
6077;SDS011;3067;49.470;10.394;2024-03-25T05:22:40;12.00;;;5.87;;
6077;SDS011;3067;49.470;10.394;2024-03-25T05:25:06;13.30;;;5.67;;
6077;SDS011;3067;49.470;10.394;2024-03-25T05:27:32;6.13;;;5.37;;
6077;SDS011;3067;49.470;10.394;2024-03-25T05:29:58;6.57;;;5.73;;
6077;SDS011;3067;49.470;10.394;2024-03-25T05:32:24;6.53;;;5.20;;
6077;SDS011;3067;49.470;10.394;2024-03-25T05:34:52;7.60;;;5.90;;
6077;SDS011;3067;49.470;10.394;2024-03-25T05:37:18;16.90;;;5.70;;
6077;SDS011;3067;49.470;10.394;2024-03-25T05:39:44;15.50;;;5.43;;
6077;SDS011;3067;49.470;10.394;2024-03-25T05:42:10;7.60;;;5.50;;
6077;SDS011;3067;49.470;10.394;2024-03-25T05:44:36;8.47;;;5.87;;
6077;SDS011;3067;49.470;10.394;2024-03-25T05:47:02;10.40;;;6.10;;
6077;SDS011;3067;49.470;10.394;2024-03-25T05:49:29;6.30;;;5.00;;
6077;SDS011;3067;49.470;10.394;2024-03-25T05:51:56;12.53;;;6.37;;
6077;SDS011;3067;49.470;10.394;2024-03-25T05:54:22;10.97;;;6.27;;
6077;SDS011;3067;49.470;10.394;2024-03-25T05:56:48;8.20;;;6.07;;
6077;SDS011;3067;49.470;10.394;2024-03-25T05:59:14;14.00;;;6.77;;
6077;SDS011;3067;49.470;10.394;2024-03-25T06:01:40;6.10;;;5.50;;
6077;SDS011;3067;49.470;10.394;2024-03-25T06:04:06;12.43;;;5.60;;
6077;SDS011;3067;49.470;10.394;2024-03-25T06:06:32;12.20;;;5.60;;
6077;SDS011;3067;49.470;10.394;2024-03-25T06:09:00;7.97;;;5.60;;
6077;SDS011;3067;49.470;10.394;2024-03-25T06:11:26;8.90;;;6.60;;
6077;SDS011;3067;49.470;10.394;2024-03-25T06:13:52;9.33;;;5.67;;
6077;SDS011;3067;49.470;10.394;2024-03-25T06:16:18;6.20;;;5.60;;
6077;SDS011;3067;49.470;10.394;2024-03-25T06:18:44;8.77;;;6.30;;
6077;SDS011;3067;49.470;10.394;2024-03-25T06:21:10;8.00;;;6.07;;
6077;SDS011;3067;49.470;10.394;2024-03-25T06:23:37;5.30;;;4.80;;
6077;SDS011;3067;49.470;10.394;2024-03-25T06:26:04;10.07;;;5.37;;
6077;SDS011;3067;49.470;10.394;2024-03-25T06:28:30;9.70;;;5.80;;
6077;SDS011;3067;49.470;10.394;2024-03-25T06:30:57;7.53;;;4.80;;
6077;SDS011;3067;49.470;10.394;2024-03-25T06:33:41;6.03;;;4.97;;
6077;SDS011;3067;49.470;10.394;2024-03-25T06:36:26;10.30;;;5.50;;
6077;SDS011;3067;49.470;10.394;2024-03-25T06:38:52;7.73;;;5.33;;
6077;SDS011;3067;49.470;10.394;2024-03-25T06:41:19;11.50;;;5.20;;
6077;SDS011;3067;49.470;10.394;2024-03-25T06:43:45;9.47;;;5.20;;
6077;SDS011;3067;49.470;10.394;2024-03-25T06:46:11;9.60;;;5.27;;
6077;SDS011;3067;49.470;10.394;2024-03-25T06:48:37;5.23;;;4.80;;
6077;SDS011;3067;49.470;10.394;2024-03-25T06:51:03;10.27;;;5.10;;
6077;SDS011;3067;49.470;10.394;2024-03-25T06:53:30;8.93;;;6.37;;
6077;SDS011;3067;49.470;10.394;2024-03-25T06:55:56;8.90;;;6.30;;
6077;SDS011;3067;49.470;10.394;2024-03-25T06:58:25;9.37;;;6.03;;
6077;SDS011;3067;49.470;10.394;2024-03-25T07:00:52;13.60;;;5.90;;
6077;SDS011;3067;49.470;10.394;2024-03-25T07:03:18;6.87;;;4.70;;
6077;SDS011;3067;49.470;10.394;2024-03-25T07:05:45;9.53;;;6.07;;
6077;SDS011;3067;49.470;10.394;2024-03-25T07:08:12;8.50;;;5.70;;
6077;SDS011;3067;49.470;10.394;2024-03-25T07:10:38;10.50;;;6.33;;
6077;SDS011;3067;49.470;10.394;2024-03-25T07:13:04;8.10;;;5.30;;
6077;SDS011;3067;49.470;10.394;2024-03-25T07:15:32;12.97;;;5.63;;
6077;SDS011;3067;49.470;10.394;2024-03-25T07:17:58;8.77;;;5.80;;
6077;SDS011;3067;49.470;10.394;2024-03-25T07:20:24;10.07;;;6.17;;
6077;SDS011;3067;49.470;10.394;2024-03-25T07:22:50;7.97;;;5.67;;
6077;SDS011;3067;49.470;10.394;2024-03-25T07:25:16;7.77;;;6.23;;
6077;SDS011;3067;49.470;10.394;2024-03-25T07:27:42;7.90;;;5.70;;
6077;SDS011;3067;49.470;10.394;2024-03-25T07:30:08;8.37;;;6.73;;
6077;SDS011;3067;49.470;10.394;2024-03-25T07:32:36;7.20;;;5.10;;
6077;SDS011;3067;49.470;10.394;2024-03-25T07:35:03;8.93;;;5.30;;
6077;SDS011;3067;49.470;10.394;2024-03-25T07:37:30;7.27;;;5.37;;
6077;SDS011;3067;49.470;10.394;2024-03-25T07:39:56;7.13;;;5.70;;
6077;SDS011;3067;49.470;10.394;2024-03-25T07:42:22;9.40;;;5.97;;
6077;SDS011;3067;49.470;10.394;2024-03-25T07:44:48;7.70;;;5.73;;
6077;SDS011;3067;49.470;10.394;2024-03-25T07:47:14;15.83;;;5.70;;
6077;SDS011;3067;49.470;10.394;2024-03-25T07:49:41;15.77;;;5.37;;
6077;SDS011;3067;49.470;10.394;2024-03-25T07:52:07;5.03;;;4.53;;
6077;SDS011;3067;49.470;10.394;2024-03-25T07:54:33;5.70;;;4.73;;
6077;SDS011;3067;49.470;10.394;2024-03-25T07:56:59;7.53;;;5.33;;
6077;SDS011;3067;49.470;10.394;2024-03-25T07:59:26;9.20;;;5.20;;
6077;SDS011;3067;49.470;10.394;2024-03-25T08:01:52;7.27;;;5.23;;
6077;SDS011;3067;49.470;10.394;2024-03-25T08:04:18;11.13;;;5.03;;
6077;SDS011;3067;49.470;10.394;2024-03-25T08:06:45;7.10;;;4.53;;
6077;SDS011;3067;49.470;10.394;2024-03-25T08:09:11;5.50;;;4.27;;
6077;SDS011;3067;49.470;10.394;2024-03-25T08:11:37;10.47;;;4.63;;
6077;SDS011;3067;49.470;10.394;2024-03-25T08:14:03;8.27;;;4.83;;
6077;SDS011;3067;49.470;10.394;2024-03-25T08:16:30;5.60;;;4.30;;
6077;SDS011;3067;49.470;10.394;2024-03-25T08:18:56;10.53;;;4.87;;
6077;SDS011;3067;49.470;10.394;2024-03-25T08:21:22;7.67;;;4.90;;
6077;SDS011;3067;49.470;10.394;2024-03-25T08:23:50;8.50;;;4.57;;
6077;SDS011;3067;49.470;10.394;2024-03-25T08:26:16;7.53;;;4.40;;
6077;SDS011;3067;49.470;10.394;2024-03-25T08:28:42;4.80;;;4.40;;
6077;SDS011;3067;49.470;10.394;2024-03-25T08:31:08;8.10;;;4.93;;
6077;SDS011;3067;49.470;10.394;2024-03-25T08:33:34;11.50;;;5.37;;
6077;SDS011;3067;49.470;10.394;2024-03-25T08:36:01;6.97;;;4.90;;
6077;SDS011;3067;49.470;10.394;2024-03-25T08:38:27;5.93;;;5.27;;
6077;SDS011;3067;49.470;10.394;2024-03-25T08:40:55;8.03;;;4.67;;
6077;SDS011;3067;49.470;10.394;2024-03-25T08:43:21;6.50;;;4.47;;
6077;SDS011;3067;49.470;10.394;2024-03-25T08:45:47;4.37;;;4.03;;
6077;SDS011;3067;49.470;10.394;2024-03-25T08:48:13;5.27;;;3.77;;
6077;SDS011;3067;49.470;10.394;2024-03-25T08:50:39;5.70;;;3.97;;
6077;SDS011;3067;49.470;10.394;2024-03-25T08:53:05;3.33;;;3.13;;
6077;SDS011;3067;49.470;10.394;2024-03-25T08:55:31;4.73;;;3.40;;
6077;SDS011;3067;49.470;10.394;2024-03-25T08:57:59;10.90;;;3.60;;
6077;SDS011;3067;49.470;10.394;2024-03-25T09:00:25;7.10;;;3.67;;
6077;SDS011;3067;49.470;10.394;2024-03-25T09:02:51;4.53;;;3.50;;
6077;SDS011;3067;49.470;10.394;2024-03-25T09:05:17;3.77;;;3.20;;
6077;SDS011;3067;49.470;10.394;2024-03-25T09:07:44;5.90;;;4.40;;
6077;SDS011;3067;49.470;10.394;2024-03-25T09:10:10;4.80;;;3.70;;
6077;SDS011;3067;49.470;10.394;2024-03-25T09:13:07;9.90;;;4.40;;
6077;SDS011;3067;49.470;10.394;2024-03-25T09:15:33;6.57;;;4.40;;
6077;SDS011;3067;49.470;10.394;2024-03-25T09:18:00;9.67;;;5.00;;
6077;SDS011;3067;49.470;10.394;2024-03-25T09:20:26;4.50;;;4.10;;
6077;SDS011;3067;49.470;10.394;2024-03-25T09:22:53;7.80;;;4.23;;
6077;SDS011;3067;49.470;10.394;2024-03-25T09:25:19;6.50;;;3.97;;
6077;SDS011;3067;49.470;10.394;2024-03-25T09:27:45;4.40;;;4.00;;
6077;SDS011;3067;49.470;10.394;2024-03-25T09:30:13;8.40;;;4.10;;
6077;SDS011;3067;49.470;10.394;2024-03-25T09:32:40;6.37;;;4.00;;
6077;SDS011;3067;49.470;10.394;2024-03-25T09:35:06;4.53;;;3.70;;
6077;SDS011;3067;49.470;10.394;2024-03-25T09:37:33;6.23;;;3.50;;
6077;SDS011;3067;49.470;10.394;2024-03-25T09:39:59;7.13;;;4.27;;
6077;SDS011;3067;49.470;10.394;2024-03-25T09:42:25;4.60;;;4.17;;
6077;SDS011;3067;49.470;10.394;2024-03-25T09:44:53;6.33;;;3.90;;
6077;SDS011;3067;49.470;10.394;2024-03-25T09:47:21;5.17;;;3.67;;
6077;SDS011;3067;49.470;10.394;2024-03-25T09:49:48;4.87;;;4.17;;
6077;SDS011;3067;49.470;10.394;2024-03-25T09:52:15;4.20;;;3.80;;
6077;SDS011;3067;49.470;10.394;2024-03-25T09:54:41;7.10;;;4.20;;
6077;SDS011;3067;49.470;10.394;2024-03-25T09:57:07;10.63;;;4.20;;
6077;SDS011;3067;49.470;10.394;2024-03-25T09:59:34;6.40;;;4.07;;
6077;SDS011;3067;49.470;10.394;2024-03-25T10:02:01;13.53;;;4.23;;
6077;SDS011;3067;49.470;10.394;2024-03-25T10:04:29;5.97;;;4.07;;
6077;SDS011;3067;49.470;10.394;2024-03-25T10:06:55;15.60;;;4.33;;
6077;SDS011;3067;49.470;10.394;2024-03-25T10:09:21;4.67;;;4.13;;
6077;SDS011;3067;49.470;10.394;2024-03-25T10:11:48;3.90;;;3.60;;
6077;SDS011;3067;49.470;10.394;2024-03-25T10:14:14;8.03;;;4.73;;
6077;SDS011;3067;49.470;10.394;2024-03-25T10:16:41;11.30;;;4.90;;
6077;SDS011;3067;49.470;10.394;2024-03-25T10:19:07;6.97;;;4.80;;
6077;SDS011;3067;49.470;10.394;2024-03-25T10:21:34;5.60;;;4.40;;
6077;SDS011;3067;49.470;10.394;2024-03-25T10:24:01;5.47;;;4.63;;
6077;SDS011;3067;49.470;10.394;2024-03-25T10:26:30;8.33;;;4.23;;
6077;SDS011;3067;49.470;10.394;2024-03-25T10:29:00;4.33;;;3.90;;
6077;SDS011;3067;49.470;10.394;2024-03-25T10:31:28;4.93;;;3.67;;
6077;SDS011;3067;49.470;10.394;2024-03-25T10:33:55;7.60;;;3.30;;
6077;SDS011;3067;49.470;10.394;2024-03-25T10:36:21;3.70;;;3.40;;
6077;SDS011;3067;49.470;10.394;2024-03-25T10:38:50;3.70;;;3.33;;
6077;SDS011;3067;49.470;10.394;2024-03-25T10:41:19;2.87;;;2.67;;
6077;SDS011;3067;49.470;10.394;2024-03-25T10:43:47;2.87;;;2.67;;
6077;SDS011;3067;49.470;10.394;2024-03-25T10:46:17;3.17;;;2.97;;
6077;SDS011;3067;49.470;10.394;2024-03-25T10:48:48;2.60;;;2.43;;
6077;SDS011;3067;49.470;10.394;2024-03-25T10:51:19;3.03;;;2.83;;
6077;SDS011;3067;49.470;10.394;2024-03-25T10:53:49;3.10;;;2.90;;
6077;SDS011;3067;49.470;10.394;2024-03-25T10:56:18;3.93;;;3.50;;
6077;SDS011;3067;49.470;10.394;2024-03-25T10:58:46;3.30;;;3.10;;
6077;SDS011;3067;49.470;10.394;2024-03-25T11:01:13;4.00;;;2.97;;
6077;SDS011;3067;49.470;10.394;2024-03-25T11:03:42;2.80;;;2.60;;
6077;SDS011;3067;49.470;10.394;2024-03-25T11:06:09;3.10;;;2.90;;
6077;SDS011;3067;49.470;10.394;2024-03-25T11:08:36;3.70;;;3.33;;
6077;SDS011;3067;49.470;10.394;2024-03-25T11:11:03;4.10;;;3.00;;
6077;SDS011;3067;49.470;10.394;2024-03-25T11:13:31;3.10;;;3.00;;
6077;SDS011;3067;49.470;10.394;2024-03-25T11:15:57;3.23;;;3.00;;
6077;SDS011;3067;49.470;10.394;2024-03-25T11:18:24;4.40;;;2.77;;
6077;SDS011;3067;49.470;10.394;2024-03-25T11:21:00;3.00;;;2.80;;
6077;SDS011;3067;49.470;10.394;2024-03-25T11:23:34;3.10;;;2.90;;
6077;SDS011;3067;49.470;10.394;2024-03-25T11:26:01;3.50;;;3.30;;
6077;SDS011;3067;49.470;10.394;2024-03-25T11:28:29;11.47;;;4.13;;
6077;SDS011;3067;49.470;10.394;2024-03-25T11:30:55;3.60;;;3.30;;
6077;SDS011;3067;49.470;10.394;2024-03-25T11:33:22;4.10;;;3.07;;
6077;SDS011;3067;49.470;10.394;2024-03-25T11:35:48;5.03;;;3.30;;
6077;SDS011;3067;49.470;10.394;2024-03-25T11:38:15;2.90;;;2.70;;
6077;SDS011;3067;49.470;10.394;2024-03-25T11:40:41;3.40;;;3.00;;
6077;SDS011;3067;49.470;10.394;2024-03-25T11:43:10;3.37;;;2.80;;
6077;SDS011;3067;49.470;10.394;2024-03-25T11:45:44;3.10;;;2.97;;
6077;SDS011;3067;49.470;10.394;2024-03-25T11:48:13;2.77;;;2.67;;
6077;SDS011;3067;49.470;10.394;2024-03-25T11:50:39;4.33;;;2.67;;
6077;SDS011;3067;49.470;10.394;2024-03-25T11:53:07;2.83;;;2.63;;
6077;SDS011;3067;49.470;10.394;2024-03-25T11:55:33;4.87;;;3.10;;
6077;SDS011;3067;49.470;10.394;2024-03-25T11:57:59;3.57;;;3.27;;
6077;SDS011;3067;49.470;10.394;2024-03-25T12:00:27;3.17;;;2.97;;
6077;SDS011;3067;49.470;10.394;2024-03-25T12:02:53;3.23;;;3.00;;
6077;SDS011;3067;49.470;10.394;2024-03-25T12:05:22;5.20;;;3.07;;
6077;SDS011;3067;49.470;10.394;2024-03-25T12:07:49;3.00;;;2.80;;
6077;SDS011;3067;49.470;10.394;2024-03-25T12:10:15;4.30;;;3.17;;
6077;SDS011;3067;49.470;10.394;2024-03-25T12:13:00;3.10;;;2.93;;
6077;SDS011;3067;49.470;10.394;2024-03-25T12:15:27;3.43;;;3.23;;
6077;SDS011;3067;49.470;10.394;2024-03-25T12:17:54;3.10;;;2.90;;
6077;SDS011;3067;49.470;10.394;2024-03-25T12:20:21;2.90;;;2.70;;
6077;SDS011;3067;49.470;10.394;2024-03-25T12:22:48;4.23;;;2.80;;
6077;SDS011;3067;49.470;10.394;2024-03-25T12:25:14;3.43;;;3.20;;
6077;SDS011;3067;49.470;10.394;2024-03-25T12:27:40;3.47;;;2.67;;
6077;SDS011;3067;49.470;10.394;2024-03-25T12:30:11;3.13;;;2.90;;
6077;SDS011;3067;49.470;10.394;2024-03-25T12:32:40;3.60;;;3.30;;
6077;SDS011;3067;49.470;10.394;2024-03-25T12:35:07;2.90;;;2.80;;
6077;SDS011;3067;49.470;10.394;2024-03-25T12:37:35;3.53;;;3.00;;
6077;SDS011;3067;49.470;10.394;2024-03-25T12:40:02;2.93;;;2.63;;
6077;SDS011;3067;49.470;10.394;2024-03-25T12:42:29;2.47;;;2.37;;
6077;SDS011;3067;49.470;10.394;2024-03-25T12:44:55;3.10;;;2.40;;
6077;SDS011;3067;49.470;10.394;2024-03-25T12:47:22;4.60;;;2.43;;
6077;SDS011;3067;49.470;10.394;2024-03-25T12:49:49;5.13;;;3.00;;
6077;SDS011;3067;49.470;10.394;2024-03-25T12:52:16;2.87;;;2.77;;
6077;SDS011;3067;49.470;10.394;2024-03-25T12:54:42;4.57;;;3.33;;
6077;SDS011;3067;49.470;10.394;2024-03-25T12:57:08;2.77;;;2.50;;
6077;SDS011;3067;49.470;10.394;2024-03-25T12:59:34;3.03;;;2.77;;
6077;SDS011;3067;49.470;10.394;2024-03-25T13:02:01;2.63;;;2.43;;
6077;SDS011;3067;49.470;10.394;2024-03-25T13:04:27;3.87;;;2.70;;
6077;SDS011;3067;49.470;10.394;2024-03-25T13:06:55;2.50;;;2.30;;
6077;SDS011;3067;49.470;10.394;2024-03-25T13:09:21;3.57;;;2.37;;
6077;SDS011;3067;49.470;10.394;2024-03-25T13:11:47;3.50;;;2.60;;
6077;SDS011;3067;49.470;10.394;2024-03-25T13:14:13;2.90;;;2.70;;
6077;SDS011;3067;49.470;10.394;2024-03-25T13:16:39;2.93;;;2.50;;
6077;SDS011;3067;49.470;10.394;2024-03-25T13:19:06;5.77;;;2.80;;
6077;SDS011;3067;49.470;10.394;2024-03-25T13:21:32;2.90;;;2.63;;
6077;SDS011;3067;49.470;10.394;2024-03-25T13:24:00;2.83;;;2.63;;
6077;SDS011;3067;49.470;10.394;2024-03-25T13:26:26;3.27;;;3.03;;
6077;SDS011;3067;49.470;10.394;2024-03-25T13:28:52;2.70;;;2.60;;
6077;SDS011;3067;49.470;10.394;2024-03-25T13:31:19;2.70;;;2.60;;
6077;SDS011;3067;49.470;10.394;2024-03-25T13:33:45;3.37;;;3.07;;
6077;SDS011;3067;49.470;10.394;2024-03-25T13:36:11;2.60;;;2.50;;
6077;SDS011;3067;49.470;10.394;2024-03-25T13:38:37;2.60;;;2.40;;
6077;SDS011;3067;49.470;10.394;2024-03-25T13:41:05;3.50;;;2.73;;
6077;SDS011;3067;49.470;10.394;2024-03-25T13:43:31;2.97;;;2.87;;
6077;SDS011;3067;49.470;10.394;2024-03-25T13:45:57;3.00;;;2.80;;
6077;SDS011;3067;49.470;10.394;2024-03-25T13:48:23;3.63;;;2.60;;
6077;SDS011;3067;49.470;10.394;2024-03-25T13:50:53;2.50;;;2.40;;
6077;SDS011;3067;49.470;10.394;2024-03-25T13:53:19;2.20;;;2.10;;
6077;SDS011;3067;49.470;10.394;2024-03-25T13:55:45;3.37;;;2.70;;
6077;SDS011;3067;49.470;10.394;2024-03-25T13:58:13;2.47;;;2.37;;
6077;SDS011;3067;49.470;10.394;2024-03-25T14:00:39;2.50;;;2.40;;
6077;SDS011;3067;49.470;10.394;2024-03-25T14:03:05;2.87;;;2.50;;
6077;SDS011;3067;49.470;10.394;2024-03-25T14:05:31;2.30;;;2.20;;
6077;SDS011;3067;49.470;10.394;2024-03-25T14:07:58;2.50;;;2.40;;
6077;SDS011;3067;49.470;10.394;2024-03-25T14:10:24;2.40;;;2.30;;
6077;SDS011;3067;49.470;10.394;2024-03-25T14:12:50;2.63;;;2.40;;
6077;SDS011;3067;49.470;10.394;2024-03-25T14:15:18;2.40;;;2.30;;
6077;SDS011;3067;49.470;10.394;2024-03-25T14:17:44;2.70;;;2.47;;
6077;SDS011;3067;49.470;10.394;2024-03-25T14:20:10;2.43;;;2.33;;
6077;SDS011;3067;49.470;10.394;2024-03-25T14:22:36;2.80;;;2.70;;
6077;SDS011;3067;49.470;10.394;2024-03-25T14:25:03;2.20;;;2.10;;
6077;SDS011;3067;49.470;10.394;2024-03-25T14:27:29;2.17;;;2.07;;
6077;SDS011;3067;49.470;10.394;2024-03-25T14:29:55;4.20;;;2.57;;
6077;SDS011;3067;49.470;10.394;2024-03-25T14:32:23;2.30;;;2.20;;
6077;SDS011;3067;49.470;10.394;2024-03-25T14:34:49;2.60;;;2.50;;
6077;SDS011;3067;49.470;10.394;2024-03-25T14:37:16;2.40;;;2.20;;
6077;SDS011;3067;49.470;10.394;2024-03-25T14:39:42;2.50;;;2.17;;
6077;SDS011;3067;49.470;10.394;2024-03-25T14:42:08;2.10;;;2.00;;
6077;SDS011;3067;49.470;10.394;2024-03-25T14:44:35;2.70;;;2.50;;
6077;SDS011;3067;49.470;10.394;2024-03-25T14:47:01;2.60;;;2.03;;
6077;SDS011;3067;49.470;10.394;2024-03-25T14:49:29;2.30;;;2.10;;
6077;SDS011;3067;49.470;10.394;2024-03-25T14:51:55;2.10;;;2.00;;
6077;SDS011;3067;49.470;10.394;2024-03-25T14:54:21;3.03;;;2.40;;
6077;SDS011;3067;49.470;10.394;2024-03-25T14:56:47;2.10;;;2.00;;
6077;SDS011;3067;49.470;10.394;2024-03-25T14:59:14;4.50;;;2.40;;